createdAt,value
2022-07-29T00:02:10.800Z,8.55
2022-07-29T00:04:38.860Z,7.18
2022-07-29T00:07:05.344Z,8.30
2022-07-29T00:09:32.397Z,12.43
2022-07-29T00:12:01.243Z,10.90
2022-07-29T00:14:29.166Z,13.18
2022-07-29T00:16:56.455Z,11.93
2022-07-29T00:19:23.340Z,11.73
2022-07-29T00:21:49.867Z,12.43
2022-07-29T00:24:16.555Z,12.10
2022-07-29T00:26:43.479Z,10.30
2022-07-29T00:31:56.984Z,10.65
2022-07-29T00:34:41.781Z,14.13
2022-07-29T00:39:34.836Z,10.25
2022-07-29T00:42:04.462Z,8.63
2022-07-29T00:44:31.145Z,10.38
2022-07-29T00:46:57.602Z,12.15
2022-07-29T00:49:24.581Z,10.40
2022-07-29T00:51:51.310Z,10.73
2022-07-29T00:54:18.635Z,13.10
2022-07-29T00:56:45.731Z,13.05
2022-07-29T00:59:12.100Z,12.05
2022-07-29T01:01:38.533Z,10.82
2022-07-29T01:04:07.605Z,12.27
2022-07-29T01:06:35.608Z,12.20
2022-07-29T01:09:02.402Z,12.50
2022-07-29T01:11:29.291Z,11.50
2022-07-29T01:13:56.451Z,15.55
2022-07-29T01:16:31.739Z,19.05
2022-07-29T01:19:07.850Z,12.35
2022-07-29T01:21:39.899Z,12.60
2022-07-29T01:24:35.383Z,15.52
2022-07-29T01:27:19.109Z,15.32
2022-07-29T01:29:54.980Z,15.18
2022-07-29T01:32:29.013Z,16.25
2022-07-29T01:35:04.939Z,19.70
2022-07-29T01:37:43.956Z,16.42
2022-07-29T01:40:21.125Z,18.85
2022-07-29T01:42:52.480Z,21.75
2022-07-29T01:45:36.169Z,21.25
2022-07-29T01:48:17.824Z,20.98
2022-07-29T01:50:57.262Z,21.90
2022-07-29T01:53:38.088Z,20.30
2022-07-29T01:56:07.334Z,22.15
2022-07-29T01:58:35.907Z,19.52
2022-07-29T02:01:04.184Z,25.55
2022-07-29T02:03:33.369Z,25.05
2022-07-29T02:06:02.972Z,29.00
2022-07-29T02:08:31.063Z,25.70
2022-07-29T02:10:59.399Z,25.40
2022-07-29T02:13:29.008Z,23.52
2022-07-29T02:15:58.112Z,24.30
2022-07-29T02:18:26.205Z,30.48
2022-07-29T02:20:57.732Z,30.85
2022-07-29T02:23:25.830Z,30.70
2022-07-29T02:25:56.172Z,41.33
2022-07-29T02:28:25.216Z,52.90
2022-07-29T02:30:53.192Z,48.28
2022-07-29T02:33:21.383Z,41.33
2022-07-29T02:35:49.469Z,42.10
2022-07-29T02:38:36.402Z,39.25
2022-07-29T02:41:13.187Z,41.50
2022-07-29T02:43:41.426Z,44.90
2022-07-29T02:46:28.282Z,41.10
2022-07-29T02:49:23.439Z,41.30
2022-07-29T02:52:03.036Z,39.53
2022-07-29T02:54:39.165Z,37.15
2022-07-29T02:57:16.153Z,37.90
2022-07-29T02:59:46.083Z,41.35
2022-07-29T03:02:15.880Z,40.40
2022-07-29T03:04:44.827Z,37.42
2022-07-29T03:07:16.377Z,30.10
2022-07-29T03:09:43.877Z,30.48
2022-07-29T03:12:11.937Z,36.03
2022-07-29T03:14:39.267Z,37.78
2022-07-29T03:17:06.738Z,41.53
2022-07-29T03:19:33.352Z,39.13
2022-07-29T03:22:00.987Z,34.55
2022-07-29T03:24:29.470Z,33.47
2022-07-29T03:26:57.604Z,31.67
2022-07-29T03:29:24.638Z,32.53
2022-07-29T03:31:51.161Z,31.42
2022-07-29T03:34:18.141Z,33.35
2022-07-29T03:36:45.227Z,27.95
2022-07-29T03:39:15.528Z,30.33
2022-07-29T03:41:45.764Z,30.55
2022-07-29T03:44:14.777Z,30.00
2022-07-29T03:46:44.642Z,33.63
2022-07-29T03:49:13.705Z,30.75
2022-07-29T03:51:40.351Z,26.08
2022-07-29T03:54:10.111Z,29.40
2022-07-29T03:56:40.701Z,28.08
2022-07-29T03:59:08.113Z,25.40
2022-07-29T04:01:35.600Z,24.63
2022-07-29T04:04:02.511Z,29.33
2022-07-29T04:06:29.363Z,31.30
2022-07-29T04:08:55.751Z,41.28
2022-07-29T04:11:22.176Z,54.60
2022-07-29T04:13:49.128Z,63.13
2022-07-29T04:16:15.541Z,70.38
2022-07-29T04:18:41.960Z,68.13
2022-07-29T04:21:08.375Z,31.88
2022-07-29T04:23:34.785Z,30.92
2022-07-29T04:26:02.012Z,54.13
2022-07-29T04:28:28.800Z,37.97
2022-07-29T04:30:55.596Z,31.02
2022-07-29T04:33:22.022Z,27.88
2022-07-29T04:35:52.678Z,26.27
2022-07-29T04:38:22.653Z,31.17
2022-07-29T04:40:49.604Z,22.77
2022-07-29T04:43:17.695Z,21.65
2022-07-29T04:45:49.999Z,25.30
2022-07-29T04:48:16.416Z,25.13
2022-07-29T04:50:42.999Z,25.58
2022-07-29T04:53:10.029Z,28.20
2022-07-29T04:55:37.357Z,25.33
2022-07-29T04:58:05.569Z,26.58
2022-07-29T05:00:33.483Z,26.65
2022-07-29T05:03:00.290Z,28.25
2022-07-29T05:05:26.778Z,64.90
2022-07-29T05:07:53.647Z,70.93
2022-07-29T05:10:20.027Z,64.55
2022-07-29T05:12:46.416Z,60.92
2022-07-29T05:15:13.262Z,57.15
2022-07-29T05:17:40.059Z,52.30
2022-07-29T05:20:07.966Z,44.35
2022-07-29T05:22:34.322Z,39.75
2022-07-29T05:25:05.536Z,33.67
2022-07-29T05:30:01.379Z,28.25
2022-07-29T05:32:28.262Z,24.75
2022-07-29T05:34:54.621Z,23.17
2022-07-29T05:37:21.029Z,25.05
2022-07-29T05:39:49.042Z,21.92
2022-07-29T05:42:17.664Z,22.33
2022-07-29T05:44:44.066Z,20.92
2022-07-29T05:47:10.472Z,20.55
2022-07-29T05:49:37.301Z,21.45
2022-07-29T05:52:04.599Z,18.80
2022-07-29T05:54:31.547Z,17.88
2022-07-29T05:56:58.284Z,17.15
2022-07-29T05:59:29.884Z,19.95
2022-07-29T06:01:57.943Z,21.08
2022-07-29T06:04:25.020Z,19.80
2022-07-29T06:06:51.809Z,18.35
2022-07-29T06:09:18.272Z,17.75
2022-07-29T06:11:44.652Z,19.83
2022-07-29T06:14:11.492Z,18.00
2022-07-29T06:16:38.331Z,19.50
2022-07-29T06:19:05.312Z,18.08
2022-07-29T06:21:31.710Z,17.30
2022-07-29T06:23:58.589Z,17.50
2022-07-29T06:26:30.410Z,15.48
2022-07-29T06:28:58.027Z,13.80
2022-07-29T06:31:24.915Z,14.15
2022-07-29T06:33:51.453Z,14.73
2022-07-29T06:36:23.533Z,16.40
2022-07-29T06:38:52.221Z,13.30
2022-07-29T06:41:19.159Z,12.57
2022-07-29T06:43:52.104Z,12.25
2022-07-29T06:46:22.876Z,9.40
2022-07-29T06:48:50.846Z,8.60
2022-07-29T06:51:22.946Z,11.77
2022-07-29T06:53:59.794Z,8.02
2022-07-29T06:56:30.914Z,8.75
2022-07-29T06:58:57.623Z,8.48
2022-07-29T07:01:24.071Z,7.03
2022-07-29T07:03:50.580Z,8.73
2022-07-29T07:06:17.615Z,8.30
2022-07-29T07:08:44.005Z,9.75
2022-07-29T07:11:10.784Z,9.02
2022-07-29T07:13:37.232Z,11.18
2022-07-29T07:16:05.066Z,8.13
2022-07-29T07:18:31.977Z,8.30
2022-07-29T07:20:59.556Z,7.07
2022-07-29T07:23:25.944Z,6.88
2022-07-29T07:25:52.401Z,7.07
2022-07-29T07:28:19.339Z,6.68
2022-07-29T07:30:51.824Z,8.80
2022-07-29T07:33:18.276Z,7.68
2022-07-29T07:35:45.521Z,10.65
2022-07-29T07:38:12.120Z,8.07
2022-07-29T07:40:39.002Z,7.78
2022-07-29T07:43:06.069Z,7.28
2022-07-29T07:45:33.810Z,8.52
2022-07-29T07:48:00.411Z,8.82
2022-07-29T07:50:27.327Z,6.97
2022-07-29T07:52:58.408Z,7.18
2022-07-29T07:55:25.137Z,6.93
2022-07-29T07:57:52.129Z,10.05
2022-07-29T08:00:18.628Z,7.35
2022-07-29T08:02:46.071Z,7.18
2022-07-29T08:05:18.120Z,8.52
2022-07-29T08:07:47.918Z,6.03
2022-07-29T08:10:15.515Z,6.18
2022-07-29T08:12:42.786Z,7.45
2022-07-29T08:15:09.709Z,8.07
2022-07-29T08:17:36.116Z,7.70
2022-07-29T08:20:03.128Z,5.90
2022-07-29T08:22:29.627Z,8.90
2022-07-29T08:24:57.016Z,7.28
2022-07-29T08:27:42.838Z,7.07
2022-07-29T08:30:11.023Z,5.70
2022-07-29T08:32:53.317Z,6.65
2022-07-29T08:35:21.816Z,7.68
2022-07-29T08:37:49.124Z,7.38
2022-07-29T08:40:15.810Z,5.93
2022-07-29T08:42:42.799Z,7.18
2022-07-29T08:45:10.310Z,6.72
2022-07-29T08:47:43.177Z,7.18
2022-07-29T08:50:11.105Z,7.90
2022-07-29T08:52:39.904Z,7.22
2022-07-29T08:55:08.376Z,6.78
2022-07-29T08:57:37.258Z,6.65
2022-07-29T09:00:11.344Z,6.50
2022-07-29T09:02:46.734Z,5.40
2022-07-29T09:05:14.272Z,6.10
2022-07-29T09:07:43.995Z,5.28
2022-07-29T09:10:11.506Z,6.90
2022-07-29T09:12:38.366Z,8.65
2022-07-29T09:15:05.411Z,6.28
2022-07-29T09:17:47.162Z,6.78
2022-07-29T09:20:19.238Z,6.55
2022-07-29T09:22:50.333Z,7.75
2022-07-29T09:25:41.448Z,6.72
2022-07-29T09:28:12.954Z,6.43
2022-07-29T09:30:58.027Z,6.53
2022-07-29T09:33:40.092Z,7.05
2022-07-29T09:36:09.071Z,7.70
2022-07-29T09:38:37.518Z,8.02
2022-07-29T09:41:06.948Z,7.30
2022-07-29T09:43:35.179Z,6.53
2022-07-29T09:46:14.729Z,6.20
2022-07-29T09:48:42.296Z,7.80
2022-07-29T09:51:28.307Z,7.25
2022-07-29T09:54:27.797Z,6.63
2022-07-29T09:56:55.547Z,8.57
2022-07-29T09:59:25.206Z,7.65
2022-07-29T10:01:51.629Z,7.68
2022-07-29T10:04:18.879Z,6.43
2022-07-29T10:07:05.479Z,7.05
2022-07-29T10:09:33.319Z,8.20
2022-07-29T10:12:07.480Z,7.18
2022-07-29T10:14:36.710Z,6.07
2022-07-29T10:17:04.836Z,6.80
2022-07-29T10:19:32.899Z,6.35
2022-07-29T10:22:00.959Z,7.47
2022-07-29T10:24:29.123Z,5.82
2022-07-29T10:26:58.164Z,9.27
2022-07-29T10:29:26.036Z,8.10
2022-07-29T10:32:11.149Z,5.90
2022-07-29T10:34:55.671Z,5.68
2022-07-29T10:38:04.841Z,7.57
2022-07-29T10:41:20.273Z,6.78
2022-07-29T10:43:51.260Z,4.88
2022-07-29T10:46:19.378Z,8.40
2022-07-29T10:49:11.587Z,4.93
2022-07-29T10:52:03.627Z,4.35
2022-07-29T10:54:48.976Z,4.55
2022-07-29T10:57:15.932Z,5.97
2022-07-29T10:59:44.267Z,8.23
2022-07-29T11:02:41.780Z,7.75
2022-07-29T11:05:20.266Z,8.38
2022-07-29T11:08:19.994Z,5.20
2022-07-29T11:11:12.532Z,6.07
2022-07-29T11:13:48.931Z,4.22
2022-07-29T11:16:16.419Z,5.10
2022-07-29T11:19:11.454Z,5.50
2022-07-29T11:21:54.007Z,4.43
2022-07-29T11:24:30.095Z,4.80
2022-07-29T11:27:21.324Z,5.68
2022-07-29T11:30:02.085Z,3.72
2022-07-29T11:32:39.376Z,4.70
2022-07-29T11:35:18.834Z,5.70
2022-07-29T11:37:52.566Z,4.07
2022-07-29T11:40:34.311Z,4.43
2022-07-29T11:43:00.689Z,4.63
2022-07-29T11:45:45.565Z,6.57
2022-07-29T11:48:28.887Z,8.57
2022-07-29T11:51:12.102Z,4.22
2022-07-29T11:53:40.450Z,4.43
2022-07-29T11:56:09.634Z,6.72
2022-07-29T11:58:38.572Z,6.35
2022-07-29T12:01:06.104Z,5.05
2022-07-29T12:03:35.896Z,3.38
2022-07-29T12:06:13.788Z,3.30
2022-07-29T12:08:44.510Z,6.35
2022-07-29T12:11:20.418Z,3.65
2022-07-29T12:13:49.210Z,4.22
2022-07-29T12:16:15.857Z,5.53
2022-07-29T12:18:42.335Z,5.28
2022-07-29T12:21:09.693Z,4.40
2022-07-29T12:23:39.019Z,6.00
2022-07-29T12:26:10.707Z,4.25
2022-07-29T12:28:48.684Z,4.93
2022-07-29T12:31:43.922Z,3.92
2022-07-29T12:34:03.017Z,5.50
2022-07-29T12:36:29.465Z,2.42
2022-07-29T12:38:55.948Z,3.30
2022-07-29T12:41:23.196Z,2.33
2022-07-29T12:43:56.414Z,2.63
2022-07-29T12:46:23.738Z,3.47
2022-07-29T12:48:58.758Z,4.07
2022-07-29T12:51:36.171Z,2.55
2022-07-29T12:54:05.507Z,2.78
2022-07-29T12:56:47.316Z,4.30
2022-07-29T12:59:22.928Z,1.63
2022-07-29T13:01:52.332Z,3.17
2022-07-29T13:04:30.275Z,1.92
2022-07-29T13:07:04.590Z,1.90
2022-07-29T13:09:43.066Z,3.55
2022-07-29T13:12:11.376Z,1.83
2022-07-29T13:14:48.660Z,1.98
2022-07-29T13:17:28.228Z,3.08
2022-07-29T13:20:13.817Z,1.70
2022-07-29T13:22:42.019Z,1.52
2022-07-29T13:25:11.183Z,2.10
2022-07-29T13:27:39.295Z,3.35
2022-07-29T13:30:08.391Z,2.40
2022-07-29T13:32:35.835Z,1.63
2022-07-29T13:35:05.485Z,3.28
2022-07-29T13:37:34.935Z,1.88
2022-07-29T13:40:04.514Z,3.75
2022-07-29T13:42:32.919Z,2.55
2022-07-29T13:45:00.451Z,3.03
2022-07-29T13:47:32.426Z,2.05
2022-07-29T13:49:59.338Z,3.92
2022-07-29T13:52:26.063Z,4.25
2022-07-29T13:54:52.418Z,2.42
2022-07-29T13:57:20.076Z,4.97
2022-07-29T13:59:53.900Z,4.05
2022-07-29T14:02:21.457Z,4.88
2022-07-29T14:04:52.487Z,3.65
2022-07-29T14:07:19.088Z,4.57
2022-07-29T14:09:45.603Z,6.43
2022-07-29T14:12:12.773Z,5.95
2022-07-29T14:14:39.603Z,5.68
2022-07-29T14:17:07.287Z,6.10
2022-07-29T14:19:36.532Z,6.60
2022-07-29T14:22:04.979Z,7.00
2022-07-29T14:24:32.094Z,6.65
2022-07-29T14:26:58.932Z,5.13
2022-07-29T14:29:37.083Z,5.88
2022-07-29T14:32:11.310Z,6.63
2022-07-29T14:34:39.278Z,6.90
2022-07-29T14:37:07.046Z,12.15
2022-07-29T14:39:39.335Z,6.88
2022-07-29T14:42:09.364Z,6.18
2022-07-29T14:44:38.103Z,8.57
2022-07-29T14:47:07.537Z,6.25
2022-07-29T14:49:34.926Z,7.75
2022-07-29T14:52:01.528Z,6.43
2022-07-29T14:54:28.069Z,7.97
2022-07-29T14:56:58.600Z,7.97
2022-07-29T14:59:25.883Z,7.53
2022-07-29T15:01:52.473Z,6.18
2022-07-29T15:04:19.087Z,6.10
2022-07-29T15:06:45.743Z,8.77
2022-07-29T15:09:12.731Z,7.07
2022-07-29T15:11:39.349Z,5.45
2022-07-29T15:14:06.972Z,6.45
2022-07-29T15:16:36.181Z,5.93
2022-07-29T15:19:02.755Z,7.93
2022-07-29T15:21:29.139Z,7.07
2022-07-29T15:23:55.509Z,8.02
2022-07-29T15:26:22.273Z,6.85
2022-07-29T15:28:48.929Z,5.88
2022-07-29T15:31:15.583Z,4.57
2022-07-29T15:33:42.394Z,6.10
2022-07-29T15:36:09.143Z,6.75
2022-07-29T15:38:35.522Z,6.20
2022-07-29T15:41:08.488Z,3.35
2022-07-29T15:43:36.077Z,6.10
2022-07-29T15:46:21.920Z,4.20
2022-07-29T15:48:48.454Z,4.10
2022-07-29T15:51:15.160Z,4.50
2022-07-29T15:53:41.981Z,3.70
2022-07-29T15:56:08.397Z,5.50
2022-07-29T15:58:35.155Z,3.92
2022-07-29T16:01:02.128Z,4.00
2022-07-29T16:03:28.803Z,5.18
2022-07-29T16:05:55.555Z,3.97
2022-07-29T16:08:21.915Z,3.72
2022-07-29T16:10:48.468Z,4.53
2022-07-29T16:13:17.795Z,5.03
2022-07-29T16:15:45.742Z,7.15
2022-07-29T16:18:30.339Z,8.90
2022-07-29T16:20:57.164Z,5.28
2022-07-29T16:23:24.582Z,4.90
2022-07-29T16:25:59.696Z,5.40
2022-07-29T16:28:27.595Z,6.35
2022-07-29T16:30:54.592Z,6.72
2022-07-29T16:33:20.966Z,4.85
2022-07-29T16:35:47.355Z,4.68
2022-07-29T16:38:14.036Z,5.82
2022-07-29T16:40:40.790Z,6.88
2022-07-29T16:43:07.380Z,6.15
2022-07-29T16:45:45.264Z,7.45
2022-07-29T16:48:13.797Z,5.72
2022-07-29T16:50:41.309Z,6.82
2022-07-29T16:53:10.204Z,8.30
2022-07-29T16:55:37.063Z,6.50
2022-07-29T16:58:03.522Z,5.97
2022-07-29T17:00:30.023Z,8.43
2022-07-29T17:02:56.457Z,7.57
2022-07-29T17:05:22.844Z,9.45
2022-07-29T17:07:50.247Z,7.68
2022-07-29T17:10:17.175Z,9.07
2022-07-29T17:12:43.716Z,9.10
2022-07-29T17:15:12.139Z,8.75
2022-07-29T17:17:55.063Z,7.40
2022-07-29T17:20:23.703Z,11.32
2022-07-29T17:22:50.123Z,9.32
2022-07-29T17:25:20.815Z,10.75
2022-07-29T17:27:49.968Z,12.02
2022-07-29T17:30:16.833Z,10.32
2022-07-29T17:32:43.235Z,10.98
2022-07-29T17:35:36.540Z,13.27
2022-07-29T17:38:02.919Z,12.93
2022-07-29T17:40:29.331Z,12.75
2022-07-29T17:42:56.084Z,10.73
2022-07-29T17:45:22.427Z,14.20
2022-07-29T17:47:48.779Z,14.88
2022-07-29T17:50:15.526Z,13.93
2022-07-29T17:52:41.984Z,14.25
2022-07-29T17:55:10.200Z,13.50
2022-07-29T17:57:37.129Z,16.73
2022-07-29T18:00:05.375Z,13.73
2022-07-29T18:02:37.935Z,10.30
2022-07-29T18:05:04.977Z,11.35
2022-07-29T18:07:31.509Z,11.23
2022-07-29T18:10:00.613Z,14.40
2022-07-29T18:12:27.340Z,14.05
2022-07-29T18:14:53.708Z,9.50
2022-07-29T18:17:20.381Z,10.13
2022-07-29T18:19:48.087Z,11.30
2022-07-29T18:22:15.074Z,9.25
2022-07-29T18:24:42.719Z,8.07
2022-07-29T18:27:09.142Z,11.88
2022-07-29T18:29:35.611Z,13.20
2022-07-29T18:32:02.191Z,9.77
2022-07-29T18:34:29.349Z,11.20
2022-07-29T18:36:56.364Z,10.88
2022-07-29T18:39:23.068Z,10.93
2022-07-29T18:41:51.630Z,11.77
2022-07-29T18:44:21.721Z,9.98
2022-07-29T18:46:49.416Z,14.23
2022-07-29T18:49:16.287Z,10.73
2022-07-29T18:51:42.995Z,10.18
2022-07-29T18:54:10.416Z,9.90
2022-07-29T18:56:37.672Z,11.48
2022-07-29T18:59:04.609Z,9.18
2022-07-29T19:01:31.872Z,9.85
2022-07-29T19:03:58.957Z,9.60
2022-07-29T19:06:26.017Z,7.32
2022-07-29T19:08:53.257Z,7.60
2022-07-29T19:11:19.674Z,9.07
2022-07-29T19:13:46.080Z,9.57
2022-07-29T19:16:14.464Z,8.13
2022-07-29T19:18:43.007Z,8.45
2022-07-29T19:21:09.804Z,8.05
2022-07-29T19:24:01.490Z,10.40
2022-07-29T19:26:23.389Z,7.68
2022-07-29T19:28:53.338Z,6.25
2022-07-29T19:31:19.772Z,7.45
2022-07-29T19:33:46.606Z,9.55
2022-07-29T19:36:12.963Z,7.82
2022-07-29T19:38:39.484Z,9.13
2022-07-29T19:41:06.573Z,7.45
2022-07-29T19:43:51.297Z,8.35
2022-07-29T19:46:20.152Z,10.10
2022-07-29T19:48:46.596Z,10.85
2022-07-29T19:51:13.435Z,8.48
2022-07-29T19:53:39.853Z,7.78
2022-07-29T19:56:08.761Z,10.63
2022-07-29T19:58:36.088Z,9.48
2022-07-29T20:01:03.067Z,8.57
2022-07-29T20:03:39.537Z,11.70
2022-07-29T20:06:06.164Z,10.60
2022-07-29T20:08:33.096Z,12.05
2022-07-29T20:10:59.456Z,15.95
2022-07-29T20:13:26.179Z,15.40
2022-07-29T20:15:52.607Z,14.07
2022-07-29T20:18:19.007Z,12.90
2022-07-29T20:20:45.937Z,12.60
2022-07-29T20:23:12.301Z,14.80
2022-07-29T20:25:39.202Z,11.75
2022-07-29T20:28:05.999Z,12.18
2022-07-29T20:30:32.447Z,12.63
2022-07-29T20:32:59.379Z,12.60
2022-07-29T20:35:28.111Z,13.80
2022-07-29T20:37:56.613Z,13.52
2022-07-29T20:40:27.067Z,12.40
2022-07-29T20:42:55.093Z,13.48
2022-07-29T20:45:23.369Z,14.43
2022-07-29T20:47:51.576Z,15.77
2022-07-29T20:50:19.416Z,13.27
2022-07-29T20:52:45.956Z,13.82
2022-07-29T20:55:12.535Z,15.65
2022-07-29T20:57:40.070Z,13.27
2022-07-29T21:00:08.400Z,13.93
2022-07-29T21:02:34.857Z,14.07
2022-07-29T21:05:01.815Z,13.75
2022-07-29T21:07:28.533Z,13.77
2022-07-29T21:09:54.900Z,13.27
2022-07-29T21:12:21.286Z,13.15
2022-07-29T21:14:48.393Z,12.98
2022-07-29T21:17:16.210Z,13.02
2022-07-29T21:19:43.055Z,14.73
2022-07-29T21:22:10.139Z,12.60
2022-07-29T21:24:36.683Z,12.88
2022-07-29T21:27:22.542Z,12.88
2022-07-29T21:29:49.758Z,14.23
2022-07-29T21:32:28.439Z,14.98
2022-07-29T21:34:57.553Z,18.50
2022-07-29T21:37:24.052Z,18.73
2022-07-29T21:39:50.499Z,20.35
2022-07-29T21:42:17.271Z,18.83
2022-07-29T21:44:43.764Z,20.83
2022-07-29T21:47:11.555Z,18.90
2022-07-29T21:49:38.512Z,20.45
2022-07-29T21:52:05.709Z,19.63
2022-07-29T21:54:34.548Z,15.18
2022-07-29T21:57:01.433Z,19.25
2022-07-29T21:59:27.879Z,16.50
2022-07-29T22:01:54.703Z,18.75
2022-07-29T22:04:22.107Z,20.85
2022-07-29T22:06:48.576Z,21.77
2022-07-29T22:09:15.516Z,18.40
2022-07-29T22:11:42.380Z,21.45
2022-07-29T22:14:09.311Z,18.30
2022-07-29T22:16:35.821Z,17.35
2022-07-29T22:19:03.704Z,15.25
2022-07-29T22:21:31.147Z,15.70
2022-07-29T22:23:58.086Z,17.23
2022-07-29T22:26:24.488Z,15.13
2022-07-29T22:28:51.299Z,19.02
2022-07-29T22:31:18.459Z,16.92
2022-07-29T22:33:44.908Z,15.85
2022-07-29T22:36:11.487Z,16.15
2022-07-29T22:38:38.059Z,13.30
2022-07-29T22:41:04.461Z,17.08
2022-07-29T22:43:30.821Z,16.50
2022-07-29T22:45:57.220Z,16.45
2022-07-29T22:48:23.630Z,20.52
2022-07-29T22:50:49.966Z,16.30
2022-07-29T22:53:16.898Z,16.90
2022-07-29T22:55:45.043Z,18.23
2022-07-29T22:58:11.445Z,17.73
2022-07-29T23:00:38.291Z,17.02
2022-07-29T23:03:04.636Z,22.30
2022-07-29T23:05:31.130Z,17.73
2022-07-29T23:07:57.979Z,18.65
2022-07-29T23:10:24.511Z,21.25
2022-07-29T23:12:50.864Z,18.40
2022-07-29T23:15:18.184Z,18.85
2022-07-29T23:17:44.656Z,19.77
2022-07-29T23:20:11.264Z,22.77
2022-07-29T23:22:41.410Z,20.90
2022-07-29T23:25:08.203Z,20.17
2022-07-29T23:27:34.567Z,22.00
2022-07-29T23:30:01.403Z,20.13
2022-07-29T23:32:27.922Z,19.90
2022-07-29T23:34:54.304Z,21.98
2022-07-29T23:37:20.996Z,22.20
2022-07-29T23:39:48.051Z,27.30
2022-07-29T23:42:14.466Z,20.58
2022-07-29T23:44:40.823Z,21.80
2022-07-29T23:47:07.577Z,21.13
2022-07-29T23:49:34.495Z,18.33
2022-07-29T23:52:00.852Z,20.90
2022-07-29T23:54:27.642Z,22.10
2022-07-29T23:56:54.010Z,19.85
2022-07-29T23:59:20.448Z,25.35
